sensor_id;sensor_type;location;lat;lon;timestamp;P1;durP1;ratioP1;P2;durP2;ratioP2
68319;SDS011;55168;51.120;17.024;2023-04-01T00:00:00;6.7;;;5.8;;
68319;SDS011;55168;51.120;17.024;2023-04-01T00:01:01;8.1;;;6.5;;
68319;SDS011;55168;51.120;17.024;2023-04-01T00:02:00;8.1;;;6.5;;
68319;SDS011;55168;51.120;17.024;2023-04-01T00:03:00;8.1;;;6.5;;
68319;SDS011;55168;51.120;17.024;2023-04-01T00:04:00;8.1;;;6.5;;
68319;SDS011;55168;51.120;17.024;2023-04-01T00:05:00;8.1;;;6.5;;
68319;SDS011;55168;51.120;17.024;2023-04-01T00:06:01;8.4;;;6.4;;
68319;SDS011;55168;51.120;17.024;2023-04-01T00:07:00;8.4;;;6.4;;
68319;SDS011;55168;51.120;17.024;2023-04-01T00:08:00;8.4;;;6.4;;
68319;SDS011;55168;51.120;17.024;2023-04-01T00:09:00;8.4;;;6.4;;
68319;SDS011;55168;51.120;17.024;2023-04-01T00:10:00;8.4;;;6.4;;
68319;SDS011;55168;51.120;17.024;2023-04-01T00:11:00;8.0;;;6.9;;
68319;SDS011;55168;51.120;17.024;2023-04-01T00:12:00;8.0;;;6.9;;
68319;SDS011;55168;51.120;17.024;2023-04-01T00:13:00;8.0;;;6.9;;
68319;SDS011;55168;51.120;17.024;2023-04-01T00:14:00;8.0;;;6.9;;
68319;SDS011;55168;51.120;17.024;2023-04-01T00:15:00;8.0;;;6.9;;
68319;SDS011;55168;51.120;17.024;2023-04-01T00:16:00;9.3;;;7.1;;
68319;SDS011;55168;51.120;17.024;2023-04-01T00:17:00;9.3;;;7.1;;
68319;SDS011;55168;51.120;17.024;2023-04-01T00:18:00;9.3;;;7.1;;
68319;SDS011;55168;51.120;17.024;2023-04-01T00:19:00;9.3;;;7.1;;
68319;SDS011;55168;51.120;17.024;2023-04-01T00:20:00;9.3;;;7.1;;
68319;SDS011;55168;51.120;17.024;2023-04-01T00:21:00;7.9;;;6.7;;
68319;SDS011;55168;51.120;17.024;2023-04-01T00:22:00;7.9;;;6.7;;
68319;SDS011;55168;51.120;17.024;2023-04-01T00:23:00;7.9;;;6.7;;
68319;SDS011;55168;51.120;17.024;2023-04-01T00:24:00;7.9;;;6.7;;
68319;SDS011;55168;51.120;17.024;2023-04-01T00:25:00;7.9;;;6.7;;
68319;SDS011;55168;51.120;17.024;2023-04-01T00:26:02;9.8;;;7.6;;
68319;SDS011;55168;51.120;17.024;2023-04-01T00:27:00;9.8;;;7.6;;
68319;SDS011;55168;51.120;17.024;2023-04-01T00:28:00;9.8;;;7.6;;
68319;SDS011;55168;51.120;17.024;2023-04-01T00:29:00;9.8;;;7.6;;
68319;SDS011;55168;51.120;17.024;2023-04-01T00:30:00;9.8;;;7.6;;
68319;SDS011;55168;51.120;17.024;2023-04-01T00:31:04;9.7;;;7.6;;
68319;SDS011;55168;51.120;17.024;2023-04-01T00:32:00;9.7;;;7.6;;
68319;SDS011;55168;51.120;17.024;2023-04-01T00:33:00;9.7;;;7.6;;
68319;SDS011;55168;51.120;17.024;2023-04-01T00:34:00;9.7;;;7.6;;
68319;SDS011;55168;51.120;17.024;2023-04-01T00:35:00;9.7;;;7.6;;
68319;SDS011;55168;51.120;17.024;2023-04-01T00:36:14;9.4;;;8.0;;
68319;SDS011;55168;51.120;17.024;2023-04-01T00:37:00;9.4;;;8.0;;
68319;SDS011;55168;51.120;17.024;2023-04-01T00:38:00;9.4;;;8.0;;
68319;SDS011;55168;51.120;17.024;2023-04-01T00:39:00;9.4;;;8.0;;
68319;SDS011;55168;51.120;17.024;2023-04-01T00:40:00;9.4;;;8.0;;
68319;SDS011;55168;51.120;17.024;2023-04-01T00:41:00;8.9;;;8.0;;
68319;SDS011;55168;51.120;17.024;2023-04-01T00:42:01;8.9;;;8.0;;
68319;SDS011;55168;51.120;17.024;2023-04-01T00:43:00;8.9;;;8.0;;
68319;SDS011;55168;51.120;17.024;2023-04-01T00:44:14;8.9;;;8.0;;
68319;SDS011;55168;51.120;17.024;2023-04-01T00:45:28;8.9;;;8.0;;
68319;SDS011;55168;51.120;17.024;2023-04-01T00:46:00;10.2;;;8.5;;
68319;SDS011;55168;51.120;17.024;2023-04-01T00:47:00;10.2;;;8.5;;
68319;SDS011;55168;51.120;17.024;2023-04-01T00:48:05;10.2;;;8.5;;
68319;SDS011;55168;51.120;17.024;2023-04-01T00:49:00;10.2;;;8.5;;
68319;SDS011;55168;51.120;17.024;2023-04-01T00:50:00;10.2;;;8.5;;
68319;SDS011;55168;51.120;17.024;2023-04-01T00:51:11;10.0;;;7.8;;
68319;SDS011;55168;51.120;17.024;2023-04-01T00:52:02;10.0;;;7.8;;
68319;SDS011;55168;51.120;17.024;2023-04-01T00:53:01;10.0;;;7.8;;
68319;SDS011;55168;51.120;17.024;2023-04-01T00:54:00;10.0;;;7.8;;
68319;SDS011;55168;51.120;17.024;2023-04-01T00:55:01;10.0;;;7.8;;
68319;SDS011;55168;51.120;17.024;2023-04-01T00:56:04;10.7;;;8.4;;
68319;SDS011;55168;51.120;17.024;2023-04-01T00:57:03;10.7;;;8.4;;
68319;SDS011;55168;51.120;17.024;2023-04-01T00:58:02;10.7;;;8.4;;
68319;SDS011;55168;51.120;17.024;2023-04-01T00:59:02;10.7;;;8.4;;
68319;SDS011;55168;51.120;17.024;2023-04-01T01:00:00;10.7;;;8.4;;
68319;SDS011;55168;51.120;17.024;2023-04-01T01:01:00;10.7;;;8.8;;
68319;SDS011;55168;51.120;17.024;2023-04-01T01:02:02;10.7;;;8.8;;
68319;SDS011;55168;51.120;17.024;2023-04-01T01:03:00;10.7;;;8.8;;
68319;SDS011;55168;51.120;17.024;2023-04-01T01:04:00;10.7;;;8.8;;
68319;SDS011;55168;51.120;17.024;2023-04-01T01:05:00;10.7;;;8.8;;
68319;SDS011;55168;51.120;17.024;2023-04-01T01:08:06;10.1;;;8.6;;
68319;SDS011;55168;51.120;17.024;2023-04-01T01:10:06;10.1;;;8.6;;
68319;SDS011;55168;51.120;17.024;2023-04-01T01:11:01;13.2;;;8.8;;
68319;SDS011;55168;51.120;17.024;2023-04-01T01:12:13;13.2;;;8.8;;
68319;SDS011;55168;51.120;17.024;2023-04-01T01:13:06;13.2;;;8.8;;
68319;SDS011;55168;51.120;17.024;2023-04-01T01:14:08;13.2;;;8.8;;
68319;SDS011;55168;51.120;17.024;2023-04-01T01:16:10;10.1;;;9.1;;
68319;SDS011;55168;51.120;17.024;2023-04-01T01:17:20;10.1;;;9.1;;
68319;SDS011;55168;51.120;17.024;2023-04-01T01:21:12;10.9;;;9.0;;
68319;SDS011;55168;51.120;17.024;2023-04-01T01:24:07;10.9;;;9.0;;
68319;SDS011;55168;51.120;17.024;2023-04-01T01:27:03;10.5;;;9.4;;
68319;SDS011;55168;51.120;17.024;2023-04-01T01:30:06;10.5;;;9.4;;
68319;SDS011;55168;51.120;17.024;2023-04-01T01:31:10;9.8;;;8.8;;
68319;SDS011;55168;51.120;17.024;2023-04-01T01:32:15;9.8;;;8.8;;
68319;SDS011;55168;51.120;17.024;2023-04-01T01:33:06;9.8;;;8.8;;
68319;SDS011;55168;51.120;17.024;2023-04-01T01:34:11;9.8;;;8.8;;
68319;SDS011;55168;51.120;17.024;2023-04-01T01:35:20;9.8;;;8.8;;
68319;SDS011;55168;51.120;17.024;2023-04-01T01:36:02;10.5;;;9.4;;
68319;SDS011;55168;51.120;17.024;2023-04-01T01:37:05;10.5;;;9.4;;
68319;SDS011;55168;51.120;17.024;2023-04-01T01:38:03;10.5;;;9.4;;
68319;SDS011;55168;51.120;17.024;2023-04-01T01:39:02;10.5;;;9.4;;
68319;SDS011;55168;51.120;17.024;2023-04-01T01:40:05;10.5;;;9.4;;
68319;SDS011;55168;51.120;17.024;2023-04-01T01:41:01;10.4;;;9.2;;
68319;SDS011;55168;51.120;17.024;2023-04-01T01:42:03;10.4;;;9.2;;
68319;SDS011;55168;51.120;17.024;2023-04-01T01:43:05;10.4;;;9.2;;
68319;SDS011;55168;51.120;17.024;2023-04-01T01:44:03;10.4;;;9.2;;
68319;SDS011;55168;51.120;17.024;2023-04-01T01:45:01;10.4;;;9.2;;
68319;SDS011;55168;51.120;17.024;2023-04-01T01:46:05;10.3;;;9.2;;
68319;SDS011;55168;51.120;17.024;2023-04-01T01:47:00;10.3;;;9.2;;
68319;SDS011;55168;51.120;17.024;2023-04-01T01:48:02;10.3;;;9.2;;
68319;SDS011;55168;51.120;17.024;2023-04-01T01:49:01;10.3;;;9.2;;
68319;SDS011;55168;51.120;17.024;2023-04-01T01:50:00;10.3;;;9.2;;
68319;SDS011;55168;51.120;17.024;2023-04-01T01:51:00;10.4;;;9.4;;
68319;SDS011;55168;51.120;17.024;2023-04-01T01:52:00;10.4;;;9.4;;
68319;SDS011;55168;51.120;17.024;2023-04-01T01:53:04;10.4;;;9.4;;
68319;SDS011;55168;51.120;17.024;2023-04-01T01:54:00;10.4;;;9.4;;
68319;SDS011;55168;51.120;17.024;2023-04-01T01:55:00;10.4;;;9.4;;
68319;SDS011;55168;51.120;17.024;2023-04-01T01:56:00;10.6;;;8.8;;
68319;SDS011;55168;51.120;17.024;2023-04-01T01:57:06;10.6;;;8.8;;
68319;SDS011;55168;51.120;17.024;2023-04-01T01:58:05;10.6;;;8.8;;
68319;SDS011;55168;51.120;17.024;2023-04-01T01:59:03;10.6;;;8.8;;
68319;SDS011;55168;51.120;17.024;2023-04-01T02:00:07;10.6;;;8.8;;
68319;SDS011;55168;51.120;17.024;2023-04-01T02:01:03;9.9;;;8.4;;
68319;SDS011;55168;51.120;17.024;2023-04-01T02:02:01;9.9;;;8.4;;
68319;SDS011;55168;51.120;17.024;2023-04-01T02:03:00;9.9;;;8.4;;
68319;SDS011;55168;51.120;17.024;2023-04-01T02:04:00;9.9;;;8.4;;
68319;SDS011;55168;51.120;17.024;2023-04-01T02:05:01;9.9;;;8.4;;
68319;SDS011;55168;51.120;17.024;2023-04-01T02:06:04;9.6;;;8.5;;
68319;SDS011;55168;51.120;17.024;2023-04-01T02:07:02;9.6;;;8.5;;
68319;SDS011;55168;51.120;17.024;2023-04-01T02:08:05;9.6;;;8.5;;
68319;SDS011;55168;51.120;17.024;2023-04-01T02:09:03;9.6;;;8.5;;
68319;SDS011;55168;51.120;17.024;2023-04-01T02:10:00;9.6;;;8.5;;
68319;SDS011;55168;51.120;17.024;2023-04-01T02:11:06;9.5;;;8.5;;
68319;SDS011;55168;51.120;17.024;2023-04-01T02:12:04;9.5;;;8.5;;
68319;SDS011;55168;51.120;17.024;2023-04-01T02:13:04;9.5;;;8.5;;
68319;SDS011;55168;51.120;17.024;2023-04-01T02:14:06;9.5;;;8.5;;
68319;SDS011;55168;51.120;17.024;2023-04-01T02:15:05;9.5;;;8.5;;
68319;SDS011;55168;51.120;17.024;2023-04-01T02:16:05;8.8;;;7.9;;
68319;SDS011;55168;51.120;17.024;2023-04-01T02:17:02;8.8;;;7.9;;
68319;SDS011;55168;51.120;17.024;2023-04-01T02:18:01;8.8;;;7.9;;
68319;SDS011;55168;51.120;17.024;2023-04-01T02:19:01;8.8;;;7.9;;
68319;SDS011;55168;51.120;17.024;2023-04-01T02:20:04;8.8;;;7.9;;
68319;SDS011;55168;51.120;17.024;2023-04-01T02:21:00;10.6;;;8.3;;
68319;SDS011;55168;51.120;17.024;2023-04-01T02:22:02;10.6;;;8.3;;
68319;SDS011;55168;51.120;17.024;2023-04-01T02:23:01;10.6;;;8.3;;
68319;SDS011;55168;51.120;17.024;2023-04-01T02:24:02;10.6;;;8.3;;
68319;SDS011;55168;51.120;17.024;2023-04-01T02:25:07;10.6;;;8.3;;
68319;SDS011;55168;51.120;17.024;2023-04-01T02:26:01;9.2;;;7.7;;
68319;SDS011;55168;51.120;17.024;2023-04-01T02:27:00;9.2;;;7.7;;
68319;SDS011;55168;51.120;17.024;2023-04-01T02:28:01;9.2;;;7.7;;
68319;SDS011;55168;51.120;17.024;2023-04-01T02:29:01;9.2;;;7.7;;
68319;SDS011;55168;51.120;17.024;2023-04-01T02:30:00;9.2;;;7.7;;
68319;SDS011;55168;51.120;17.024;2023-04-01T02:31:00;9.2;;;7.4;;
68319;SDS011;55168;51.120;17.024;2023-04-01T02:32:00;9.2;;;7.4;;
68319;SDS011;55168;51.120;17.024;2023-04-01T02:33:01;9.2;;;7.4;;
68319;SDS011;55168;51.120;17.024;2023-04-01T02:34:02;9.2;;;7.4;;
68319;SDS011;55168;51.120;17.024;2023-04-01T02:35:00;9.2;;;7.4;;
68319;SDS011;55168;51.120;17.024;2023-04-01T02:36:00;9.3;;;8.1;;
68319;SDS011;55168;51.120;17.024;2023-04-01T02:37:00;9.3;;;8.1;;
68319;SDS011;55168;51.120;17.024;2023-04-01T02:38:01;9.3;;;8.1;;
68319;SDS011;55168;51.120;17.024;2023-04-01T02:39:00;9.3;;;8.1;;
68319;SDS011;55168;51.120;17.024;2023-04-01T02:40:01;9.3;;;8.1;;
68319;SDS011;55168;51.120;17.024;2023-04-01T02:41:00;9.3;;;8.1;;
68319;SDS011;55168;51.120;17.024;2023-04-01T02:42:00;9.3;;;8.1;;
68319;SDS011;55168;51.120;17.024;2023-04-01T02:43:00;9.3;;;8.1;;
68319;SDS011;55168;51.120;17.024;2023-04-01T02:44:00;9.3;;;8.1;;
68319;SDS011;55168;51.120;17.024;2023-04-01T02:45:00;9.3;;;8.1;;
68319;SDS011;55168;51.120;17.024;2023-04-01T02:46:00;9.5;;;8.5;;
68319;SDS011;55168;51.120;17.024;2023-04-01T02:47:00;9.5;;;8.5;;
68319;SDS011;55168;51.120;17.024;2023-04-01T02:48:00;9.5;;;8.5;;
68319;SDS011;55168;51.120;17.024;2023-04-01T02:49:00;9.5;;;8.5;;
68319;SDS011;55168;51.120;17.024;2023-04-01T02:50:00;9.5;;;8.5;;
68319;SDS011;55168;51.120;17.024;2023-04-01T02:51:00;9.4;;;8.4;;
68319;SDS011;55168;51.120;17.024;2023-04-01T02:52:00;9.4;;;8.4;;
68319;SDS011;55168;51.120;17.024;2023-04-01T02:53:01;9.4;;;8.4;;
68319;SDS011;55168;51.120;17.024;2023-04-01T02:54:00;9.4;;;8.4;;
68319;SDS011;55168;51.120;17.024;2023-04-01T02:55:00;9.4;;;8.4;;
68319;SDS011;55168;51.120;17.024;2023-04-01T02:56:00;10.2;;;8.5;;
68319;SDS011;55168;51.120;17.024;2023-04-01T02:57:00;10.2;;;8.5;;
68319;SDS011;55168;51.120;17.024;2023-04-01T02:58:00;10.2;;;8.5;;
68319;SDS011;55168;51.120;17.024;2023-04-01T02:59:00;10.2;;;8.5;;
68319;SDS011;55168;51.120;17.024;2023-04-01T03:00:00;10.2;;;8.5;;
68319;SDS011;55168;51.120;17.024;2023-04-01T03:01:00;10.7;;;8.8;;
68319;SDS011;55168;51.120;17.024;2023-04-01T03:02:00;10.7;;;8.8;;
68319;SDS011;55168;51.120;17.024;2023-04-01T03:03:00;10.7;;;8.8;;
68319;SDS011;55168;51.120;17.024;2023-04-01T03:04:00;10.7;;;8.8;;
68319;SDS011;55168;51.120;17.024;2023-04-01T03:05:00;10.7;;;8.8;;
68319;SDS011;55168;51.120;17.024;2023-04-01T03:06:10;9.9;;;8.5;;
68319;SDS011;55168;51.120;17.024;2023-04-01T03:07:00;9.9;;;8.5;;
68319;SDS011;55168;51.120;17.024;2023-04-01T03:08:00;9.9;;;8.5;;
68319;SDS011;55168;51.120;17.024;2023-04-01T03:09:00;9.9;;;8.5;;
68319;SDS011;55168;51.120;17.024;2023-04-01T03:10:00;9.9;;;8.5;;
68319;SDS011;55168;51.120;17.024;2023-04-01T03:11:00;9.8;;;7.9;;
68319;SDS011;55168;51.120;17.024;2023-04-01T03:12:00;9.8;;;7.9;;
68319;SDS011;55168;51.120;17.024;2023-04-01T03:13:00;9.8;;;7.9;;
68319;SDS011;55168;51.120;17.024;2023-04-01T03:14:00;9.8;;;7.9;;
68319;SDS011;55168;51.120;17.024;2023-04-01T03:15:00;9.8;;;7.9;;
68319;SDS011;55168;51.120;17.024;2023-04-01T03:16:00;8.8;;;6.7;;
68319;SDS011;55168;51.120;17.024;2023-04-01T03:17:00;8.8;;;6.7;;
68319;SDS011;55168;51.120;17.024;2023-04-01T03:18:00;8.8;;;6.7;;
68319;SDS011;55168;51.120;17.024;2023-04-01T03:19:00;8.8;;;6.7;;
68319;SDS011;55168;51.120;17.024;2023-04-01T03:20:00;8.8;;;6.7;;
68319;SDS011;55168;51.120;17.024;2023-04-01T03:21:12;6.9;;;5.8;;
68319;SDS011;55168;51.120;17.024;2023-04-01T03:22:00;6.9;;;5.8;;
68319;SDS011;55168;51.120;17.024;2023-04-01T03:23:00;6.9;;;5.8;;
68319;SDS011;55168;51.120;17.024;2023-04-01T03:24:00;6.9;;;5.8;;
68319;SDS011;55168;51.120;17.024;2023-04-01T03:25:01;6.9;;;5.8;;
68319;SDS011;55168;51.120;17.024;2023-04-01T03:26:00;6.8;;;5.4;;
68319;SDS011;55168;51.120;17.024;2023-04-01T03:27:00;6.8;;;5.4;;
68319;SDS011;55168;51.120;17.024;2023-04-01T03:28:00;6.8;;;5.4;;
68319;SDS011;55168;51.120;17.024;2023-04-01T03:29:00;6.8;;;5.4;;
68319;SDS011;55168;51.120;17.024;2023-04-01T03:30:00;6.8;;;5.4;;
68319;SDS011;55168;51.120;17.024;2023-04-01T03:31:00;6.7;;;5.3;;
68319;SDS011;55168;51.120;17.024;2023-04-01T03:32:00;6.7;;;5.3;;
68319;SDS011;55168;51.120;17.024;2023-04-01T03:33:01;6.7;;;5.3;;
68319;SDS011;55168;51.120;17.024;2023-04-01T03:34:00;6.7;;;5.3;;
68319;SDS011;55168;51.120;17.024;2023-04-01T03:35:00;6.7;;;5.3;;
68319;SDS011;55168;51.120;17.024;2023-04-01T03:36:00;6.5;;;5.1;;
68319;SDS011;55168;51.120;17.024;2023-04-01T03:37:00;6.5;;;5.1;;
68319;SDS011;55168;51.120;17.024;2023-04-01T03:38:00;6.5;;;5.1;;
68319;SDS011;55168;51.120;17.024;2023-04-01T03:39:00;6.5;;;5.1;;
68319;SDS011;55168;51.120;17.024;2023-04-01T03:40:00;6.5;;;5.1;;
68319;SDS011;55168;51.120;17.024;2023-04-01T03:41:00;6.3;;;5.0;;
68319;SDS011;55168;51.120;17.024;2023-04-01T03:42:00;6.3;;;5.0;;
68319;SDS011;55168;51.120;17.024;2023-04-01T03:43:00;6.3;;;5.0;;
68319;SDS011;55168;51.120;17.024;2023-04-01T03:44:00;6.3;;;5.0;;
68319;SDS011;55168;51.120;17.024;2023-04-01T03:45:00;6.3;;;5.0;;
68319;SDS011;55168;51.120;17.024;2023-04-01T03:46:00;5.7;;;5.1;;
68319;SDS011;55168;51.120;17.024;2023-04-01T03:47:00;5.7;;;5.1;;
68319;SDS011;55168;51.120;17.024;2023-04-01T03:48:00;5.7;;;5.1;;
68319;SDS011;55168;51.120;17.024;2023-04-01T03:49:00;5.7;;;5.1;;
68319;SDS011;55168;51.120;17.024;2023-04-01T03:50:00;5.7;;;5.1;;
68319;SDS011;55168;51.120;17.024;2023-04-01T03:51:00;7.2;;;5.7;;
68319;SDS011;55168;51.120;17.024;2023-04-01T03:52:00;7.2;;;5.7;;
68319;SDS011;55168;51.120;17.024;2023-04-01T03:53:00;7.2;;;5.7;;
68319;SDS011;55168;51.120;17.024;2023-04-01T03:54:00;7.2;;;5.7;;
68319;SDS011;55168;51.120;17.024;2023-04-01T03:55:01;7.2;;;5.7;;
68319;SDS011;55168;51.120;17.024;2023-04-01T03:56:06;5.8;;;5.2;;
68319;SDS011;55168;51.120;17.024;2023-04-01T03:57:00;5.8;;;5.2;;
68319;SDS011;55168;51.120;17.024;2023-04-01T03:58:00;5.8;;;5.2;;
68319;SDS011;55168;51.120;17.024;2023-04-01T03:59:03;5.8;;;5.2;;
68319;SDS011;55168;51.120;17.024;2023-04-01T04:00:00;5.8;;;5.2;;
68319;SDS011;55168;51.120;17.024;2023-04-01T04:01:00;6.4;;;5.6;;
68319;SDS011;55168;51.120;17.024;2023-04-01T04:02:00;6.4;;;5.6;;
68319;SDS011;55168;51.120;17.024;2023-04-01T04:03:00;6.4;;;5.6;;
68319;SDS011;55168;51.120;17.024;2023-04-01T04:04:00;6.4;;;5.6;;
68319;SDS011;55168;51.120;17.024;2023-04-01T04:05:00;6.4;;;5.6;;
68319;SDS011;55168;51.120;17.024;2023-04-01T04:06:00;6.6;;;5.7;;
68319;SDS011;55168;51.120;17.024;2023-04-01T04:07:00;6.6;;;5.7;;
68319;SDS011;55168;51.120;17.024;2023-04-01T04:08:00;6.6;;;5.7;;
68319;SDS011;55168;51.120;17.024;2023-04-01T04:09:00;6.6;;;5.7;;
68319;SDS011;55168;51.120;17.024;2023-04-01T04:10:00;6.6;;;5.7;;
68319;SDS011;55168;51.120;17.024;2023-04-01T04:11:00;7.0;;;5.6;;
68319;SDS011;55168;51.120;17.024;2023-04-01T04:12:00;7.0;;;5.6;;
68319;SDS011;55168;51.120;17.024;2023-04-01T04:13:00;7.0;;;5.6;;
68319;SDS011;55168;51.120;17.024;2023-04-01T04:14:00;7.0;;;5.6;;
68319;SDS011;55168;51.120;17.024;2023-04-01T04:15:00;7.0;;;5.6;;
68319;SDS011;55168;51.120;17.024;2023-04-01T04:16:00;6.3;;;5.7;;
68319;SDS011;55168;51.120;17.024;2023-04-01T04:17:00;6.3;;;5.7;;
68319;SDS011;55168;51.120;17.024;2023-04-01T04:18:00;6.3;;;5.7;;
68319;SDS011;55168;51.120;17.024;2023-04-01T04:19:00;6.3;;;5.7;;
68319;SDS011;55168;51.120;17.024;2023-04-01T04:20:00;6.3;;;5.7;;
68319;SDS011;55168;51.120;17.024;2023-04-01T04:21:00;7.2;;;5.3;;
68319;SDS011;55168;51.120;17.024;2023-04-01T04:22:00;7.2;;;5.3;;
68319;SDS011;55168;51.120;17.024;2023-04-01T04:23:00;7.2;;;5.3;;
68319;SDS011;55168;51.120;17.024;2023-04-01T04:24:01;7.2;;;5.3;;
68319;SDS011;55168;51.120;17.024;2023-04-01T04:25:00;7.2;;;5.3;;
68319;SDS011;55168;51.120;17.024;2023-04-01T04:26:02;8.0;;;5.3;;
68319;SDS011;55168;51.120;17.024;2023-04-01T04:27:00;8.0;;;5.3;;
68319;SDS011;55168;51.120;17.024;2023-04-01T04:28:00;8.0;;;5.3;;
68319;SDS011;55168;51.120;17.024;2023-04-01T04:29:00;8.0;;;5.3;;
68319;SDS011;55168;51.120;17.024;2023-04-01T04:30:00;8.0;;;5.3;;
68319;SDS011;55168;51.120;17.024;2023-04-01T04:31:00;7.6;;;5.5;;
68319;SDS011;55168;51.120;17.024;2023-04-01T04:32:00;7.6;;;5.5;;
68319;SDS011;55168;51.120;17.024;2023-04-01T04:33:00;7.6;;;5.5;;
68319;SDS011;55168;51.120;17.024;2023-04-01T04:34:00;7.6;;;5.5;;
68319;SDS011;55168;51.120;17.024;2023-04-01T04:35:00;7.6;;;5.5;;
68319;SDS011;55168;51.120;17.024;2023-04-01T04:36:01;8.4;;;5.4;;
68319;SDS011;55168;51.120;17.024;2023-04-01T04:37:00;8.4;;;5.4;;
68319;SDS011;55168;51.120;17.024;2023-04-01T04:38:00;8.4;;;5.4;;
68319;SDS011;55168;51.120;17.024;2023-04-01T04:39:00;8.4;;;5.4;;
68319;SDS011;55168;51.120;17.024;2023-04-01T04:40:00;8.4;;;5.4;;
68319;SDS011;55168;51.120;17.024;2023-04-01T04:41:00;7.2;;;5.4;;
68319;SDS011;55168;51.120;17.024;2023-04-01T04:42:00;7.2;;;5.4;;
68319;SDS011;55168;51.120;17.024;2023-04-01T04:43:00;7.2;;;5.4;;
68319;SDS011;55168;51.120;17.024;2023-04-01T04:44:00;7.2;;;5.4;;
68319;SDS011;55168;51.120;17.024;2023-04-01T04:45:00;7.2;;;5.4;;
68319;SDS011;55168;51.120;17.024;2023-04-01T04:46:04;6.3;;;5.7;;
68319;SDS011;55168;51.120;17.024;2023-04-01T04:47:01;6.3;;;5.7;;
68319;SDS011;55168;51.120;17.024;2023-04-01T04:48:00;6.3;;;5.7;;
68319;SDS011;55168;51.120;17.024;2023-04-01T04:49:00;6.3;;;5.7;;
68319;SDS011;55168;51.120;17.024;2023-04-01T04:50:00;6.3;;;5.7;;
68319;SDS011;55168;51.120;17.024;2023-04-01T04:51:00;7.2;;;5.4;;
68319;SDS011;55168;51.120;17.024;2023-04-01T04:52:00;7.2;;;5.4;;
68319;SDS011;55168;51.120;17.024;2023-04-01T04:53:00;7.2;;;5.4;;
68319;SDS011;55168;51.120;17.024;2023-04-01T04:54:00;7.2;;;5.4;;
68319;SDS011;55168;51.120;17.024;2023-04-01T04:55:00;7.2;;;5.4;;
68319;SDS011;55168;51.120;17.024;2023-04-01T04:56:00;6.3;;;5.1;;
68319;SDS011;55168;51.120;17.024;2023-04-01T04:57:00;6.3;;;5.1;;
68319;SDS011;55168;51.120;17.024;2023-04-01T04:58:00;6.3;;;5.1;;
68319;SDS011;55168;51.120;17.024;2023-04-01T04:59:00;6.3;;;5.1;;
68319;SDS011;55168;51.120;17.024;2023-04-01T05:00:00;6.3;;;5.1;;
68319;SDS011;55168;51.120;17.024;2023-04-01T05:01:11;7.0;;;5.2;;
68319;SDS011;55168;51.120;17.024;2023-04-01T05:02:00;7.0;;;5.2;;
68319;SDS011;55168;51.120;17.024;2023-04-01T05:03:00;7.0;;;5.2;;
68319;SDS011;55168;51.120;17.024;2023-04-01T05:04:00;7.0;;;5.2;;
68319;SDS011;55168;51.120;17.024;2023-04-01T05:05:00;7.0;;;5.2;;
68319;SDS011;55168;51.120;17.024;2023-04-01T05:06:00;5.6;;;5.1;;
68319;SDS011;55168;51.120;17.024;2023-04-01T05:07:00;5.6;;;5.1;;
68319;SDS011;55168;51.120;17.024;2023-04-01T05:08:00;5.6;;;5.1;;
68319;SDS011;55168;51.120;17.024;2023-04-01T05:09:00;5.6;;;5.1;;
68319;SDS011;55168;51.120;17.024;2023-04-01T05:10:00;5.6;;;5.1;;
68319;SDS011;55168;51.120;17.024;2023-04-01T05:11:01;5.8;;;4.8;;
68319;SDS011;55168;51.120;17.024;2023-04-01T05:12:00;5.8;;;4.8;;
68319;SDS011;55168;51.120;17.024;2023-04-01T05:13:00;5.8;;;4.8;;
68319;SDS011;55168;51.120;17.024;2023-04-01T05:14:00;5.8;;;4.8;;
68319;SDS011;55168;51.120;17.024;2023-04-01T05:15:00;5.8;;;4.8;;
68319;SDS011;55168;51.120;17.024;2023-04-01T05:16:00;5.9;;;5.3;;
68319;SDS011;55168;51.120;17.024;2023-04-01T05:17:00;5.9;;;5.3;;
68319;SDS011;55168;51.120;17.024;2023-04-01T05:18:00;5.9;;;5.3;;
68319;SDS011;55168;51.120;17.024;2023-04-01T05:19:00;5.9;;;5.3;;
68319;SDS011;55168;51.120;17.024;2023-04-01T05:20:00;5.9;;;5.3;;
68319;SDS011;55168;51.120;17.024;2023-04-01T05:21:00;6.3;;;4.7;;
68319;SDS011;55168;51.120;17.024;2023-04-01T05:22:00;6.3;;;4.7;;
68319;SDS011;55168;51.120;17.024;2023-04-01T05:23:00;6.3;;;4.7;;
68319;SDS011;55168;51.120;17.024;2023-04-01T05:24:00;6.3;;;4.7;;
68319;SDS011;55168;51.120;17.024;2023-04-01T05:25:00;6.3;;;4.7;;
68319;SDS011;55168;51.120;17.024;2023-04-01T05:26:10;5.2;;;4.7;;
68319;SDS011;55168;51.120;17.024;2023-04-01T05:27:00;5.2;;;4.7;;
68319;SDS011;55168;51.120;17.024;2023-04-01T05:28:00;5.2;;;4.7;;
68319;SDS011;55168;51.120;17.024;2023-04-01T05:29:00;5.2;;;4.7;;
68319;SDS011;55168;51.120;17.024;2023-04-01T05:30:00;5.2;;;4.7;;
68319;SDS011;55168;51.120;17.024;2023-04-01T05:31:01;5.3;;;4.8;;
68319;SDS011;55168;51.120;17.024;2023-04-01T05:32:00;5.3;;;4.8;;
68319;SDS011;55168;51.120;17.024;2023-04-01T05:33:00;5.3;;;4.8;;
68319;SDS011;55168;51.120;17.024;2023-04-01T05:34:00;5.3;;;4.8;;
68319;SDS011;55168;51.120;17.024;2023-04-01T05:35:00;5.3;;;4.8;;
68319;SDS011;55168;51.120;17.024;2023-04-01T05:36:10;5.6;;;4.9;;
68319;SDS011;55168;51.120;17.024;2023-04-01T05:37:00;5.6;;;4.9;;
68319;SDS011;55168;51.120;17.024;2023-04-01T05:38:00;5.6;;;4.9;;
68319;SDS011;55168;51.120;17.024;2023-04-01T05:39:00;5.6;;;4.9;;
68319;SDS011;55168;51.120;17.024;2023-04-01T05:40:00;5.6;;;4.9;;
68319;SDS011;55168;51.120;17.024;2023-04-01T05:41:01;6.6;;;5.3;;
68319;SDS011;55168;51.120;17.024;2023-04-01T05:42:00;6.6;;;5.3;;
68319;SDS011;55168;51.120;17.024;2023-04-01T05:43:00;6.6;;;5.3;;
68319;SDS011;55168;51.120;17.024;2023-04-01T05:44:00;6.6;;;5.3;;
68319;SDS011;55168;51.120;17.024;2023-04-01T05:45:00;6.6;;;5.3;;
68319;SDS011;55168;51.120;17.024;2023-04-01T05:46:00;5.8;;;4.8;;
68319;SDS011;55168;51.120;17.024;2023-04-01T05:47:00;5.8;;;4.8;;
68319;SDS011;55168;51.120;17.024;2023-04-01T05:48:00;5.8;;;4.8;;
68319;SDS011;55168;51.120;17.024;2023-04-01T05:49:00;5.8;;;4.8;;
68319;SDS011;55168;51.120;17.024;2023-04-01T05:50:00;5.8;;;4.8;;
68319;SDS011;55168;51.120;17.024;2023-04-01T05:51:00;7.2;;;4.6;;
68319;SDS011;55168;51.120;17.024;2023-04-01T05:52:00;7.2;;;4.6;;
68319;SDS011;55168;51.120;17.024;2023-04-01T05:53:00;7.2;;;4.6;;
68319;SDS011;55168;51.120;17.024;2023-04-01T05:54:00;7.2;;;4.6;;
68319;SDS011;55168;51.120;17.024;2023-04-01T05:55:00;7.2;;;4.6;;
68319;SDS011;55168;51.120;17.024;2023-04-01T05:56:02;6.3;;;4.8;;
68319;SDS011;55168;51.120;17.024;2023-04-01T05:57:00;6.3;;;4.8;;
68319;SDS011;55168;51.120;17.024;2023-04-01T05:58:00;6.3;;;4.8;;
68319;SDS011;55168;51.120;17.024;2023-04-01T05:59:00;6.3;;;4.8;;
68319;SDS011;55168;51.120;17.024;2023-04-01T06:00:00;6.3;;;4.8;;
68319;SDS011;55168;51.120;17.024;2023-04-01T06:01:04;6.6;;;4.8;;
68319;SDS011;55168;51.120;17.024;2023-04-01T06:02:00;6.6;;;4.8;;
68319;SDS011;55168;51.120;17.024;2023-04-01T06:03:00;6.6;;;4.8;;
68319;SDS011;55168;51.120;17.024;2023-04-01T06:04:00;6.6;;;4.8;;
68319;SDS011;55168;51.120;17.024;2023-04-01T06:05:15;5.5;;;4.9;;
68319;SDS011;55168;51.120;17.024;2023-04-01T06:06:00;5.5;;;4.9;;
68319;SDS011;55168;51.120;17.024;2023-04-01T06:07:00;5.5;;;4.9;;
68319;SDS011;55168;51.120;17.024;2023-04-01T06:08:06;5.5;;;4.9;;
68319;SDS011;55168;51.120;17.024;2023-04-01T06:10:00;5.5;;;4.9;;
68319;SDS011;55168;51.120;17.024;2023-04-01T06:13:06;5.8;;;5.2;;
68319;SDS011;55168;51.120;17.024;2023-04-01T06:14:13;5.8;;;5.2;;
68319;SDS011;55168;51.120;17.024;2023-04-01T06:16:07;6.7;;;5.1;;
68319;SDS011;55168;51.120;17.024;2023-04-01T06:21:08;6.4;;;4.9;;
68319;SDS011;55168;51.120;17.024;2023-04-01T06:22:15;6.4;;;4.9;;
68319;SDS011;55168;51.120;17.024;2023-04-01T06:24:10;6.4;;;4.9;;
68319;SDS011;55168;51.120;17.024;2023-04-01T06:25:18;6.4;;;4.9;;
68319;SDS011;55168;51.120;17.024;2023-04-01T06:26:12;6.7;;;5.4;;
68319;SDS011;55168;51.120;17.024;2023-04-01T06:27:07;6.7;;;5.4;;